sensor_id;sensor_type;location;lat;lon;timestamp;P1;durP1;ratioP1;P2;durP2;ratioP2
83018;SDS011;72834;40.104;18.336;2024-03-06T00:02:13;22.83;;;13.30;;
83018;SDS011;72834;40.104;18.336;2024-03-06T00:04:39;26.38;;;13.98;;
83018;SDS011;72834;40.104;18.336;2024-03-06T00:07:05;23.08;;;13.63;;
83018;SDS011;72834;40.104;18.336;2024-03-06T00:09:31;25.13;;;13.93;;
83018;SDS011;72834;40.104;18.336;2024-03-06T00:11:59;28.63;;;14.82;;
83018;SDS011;72834;40.104;18.336;2024-03-06T00:14:25;24.25;;;12.85;;
83018;SDS011;72834;40.104;18.336;2024-03-06T00:16:51;24.33;;;13.80;;
83018;SDS011;72834;40.104;18.336;2024-03-06T00:19:18;26.13;;;14.45;;
83018;SDS011;72834;40.104;18.336;2024-03-06T00:21:46;26.83;;;14.90;;
83018;SDS011;72834;40.104;18.336;2024-03-06T00:24:13;22.40;;;13.90;;
83018;SDS011;72834;40.104;18.336;2024-03-06T00:26:40;23.50;;;13.60;;
83018;SDS011;72834;40.104;18.336;2024-03-06T00:29:07;26.50;;;13.55;;
83018;SDS011;72834;40.104;18.336;2024-03-06T00:31:34;23.55;;;12.63;;
83018;SDS011;72834;40.104;18.336;2024-03-06T00:34:00;21.83;;;12.55;;
83018;SDS011;72834;40.104;18.336;2024-03-06T00:36:26;22.50;;;12.43;;
83018;SDS011;72834;40.104;18.336;2024-03-06T00:38:53;23.80;;;12.93;;
83018;SDS011;72834;40.104;18.336;2024-03-06T00:41:19;27.23;;;13.02;;
83018;SDS011;72834;40.104;18.336;2024-03-06T00:43:45;20.40;;;10.98;;
83018;SDS011;72834;40.104;18.336;2024-03-06T00:46:11;21.92;;;12.05;;
83018;SDS011;72834;40.104;18.336;2024-03-06T00:48:38;24.15;;;11.60;;
83018;SDS011;72834;40.104;18.336;2024-03-06T00:51:07;20.27;;;10.82;;
83018;SDS011;72834;40.104;18.336;2024-03-06T00:53:36;17.10;;;10.50;;
83018;SDS011;72834;40.104;18.336;2024-03-06T00:56:03;19.63;;;11.40;;
83018;SDS011;72834;40.104;18.336;2024-03-06T00:58:29;22.15;;;11.68;;
83018;SDS011;72834;40.104;18.336;2024-03-06T01:00:55;20.17;;;11.02;;
83018;SDS011;72834;40.104;18.336;2024-03-06T01:03:24;21.35;;;11.65;;
83018;SDS011;72834;40.104;18.336;2024-03-06T01:05:50;22.00;;;10.98;;
83018;SDS011;72834;40.104;18.336;2024-03-06T01:08:23;19.98;;;11.30;;
83018;SDS011;72834;40.104;18.336;2024-03-06T01:10:51;24.35;;;10.63;;
83018;SDS011;72834;40.104;18.336;2024-03-06T01:13:18;18.55;;;10.88;;
83018;SDS011;72834;40.104;18.336;2024-03-06T01:15:45;21.88;;;11.35;;
83018;SDS011;72834;40.104;18.336;2024-03-06T01:18:12;22.15;;;12.70;;
83018;SDS011;72834;40.104;18.336;2024-03-06T01:20:40;30.08;;;10.95;;
83018;SDS011;72834;40.104;18.336;2024-03-06T01:23:07;23.92;;;11.27;;
83018;SDS011;72834;40.104;18.336;2024-03-06T01:25:33;23.02;;;11.00;;
83018;SDS011;72834;40.104;18.336;2024-03-06T01:27:59;19.95;;;10.82;;
83018;SDS011;72834;40.104;18.336;2024-03-06T01:30:26;19.63;;;10.88;;
83018;SDS011;72834;40.104;18.336;2024-03-06T01:32:52;22.75;;;11.82;;
83018;SDS011;72834;40.104;18.336;2024-03-06T01:35:19;21.60;;;12.45;;
83018;SDS011;72834;40.104;18.336;2024-03-06T01:37:45;28.17;;;13.20;;
83018;SDS011;72834;40.104;18.336;2024-03-06T01:40:11;20.38;;;11.20;;
83018;SDS011;72834;40.104;18.336;2024-03-06T01:42:37;21.35;;;12.15;;
83018;SDS011;72834;40.104;18.336;2024-03-06T01:45:04;25.55;;;13.13;;
83018;SDS011;72834;40.104;18.336;2024-03-06T01:47:31;19.88;;;12.52;;
83018;SDS011;72834;40.104;18.336;2024-03-06T01:49:57;21.90;;;12.18;;
83018;SDS011;72834;40.104;18.336;2024-03-06T01:52:24;27.70;;;12.00;;
83018;SDS011;72834;40.104;18.336;2024-03-06T01:54:50;19.52;;;12.15;;
83018;SDS011;72834;40.104;18.336;2024-03-06T01:57:17;20.83;;;10.90;;
83018;SDS011;72834;40.104;18.336;2024-03-06T01:59:45;21.70;;;11.25;;
83018;SDS011;72834;40.104;18.336;2024-03-06T02:02:11;21.20;;;10.95;;
83018;SDS011;72834;40.104;18.336;2024-03-06T02:04:38;25.48;;;11.57;;
83018;SDS011;72834;40.104;18.336;2024-03-06T02:07:05;22.52;;;12.02;;
83018;SDS011;72834;40.104;18.336;2024-03-06T02:09:37;25.52;;;11.18;;
83018;SDS011;72834;40.104;18.336;2024-03-06T02:12:07;18.63;;;11.25;;
83018;SDS011;72834;40.104;18.336;2024-03-06T02:14:36;17.42;;;10.70;;
83018;SDS011;72834;40.104;18.336;2024-03-06T02:17:03;17.65;;;10.40;;
83018;SDS011;72834;40.104;18.336;2024-03-06T02:19:42;18.83;;;9.70;;
83018;SDS011;72834;40.104;18.336;2024-03-06T02:22:10;15.80;;;9.02;;
83018;SDS011;72834;40.104;18.336;2024-03-06T02:24:37;17.20;;;8.88;;
83018;SDS011;72834;40.104;18.336;2024-03-06T02:27:08;18.55;;;8.73;;
83018;SDS011;72834;40.104;18.336;2024-03-06T02:29:35;16.38;;;9.05;;
83018;SDS011;72834;40.104;18.336;2024-03-06T02:32:01;20.42;;;9.50;;
83018;SDS011;72834;40.104;18.336;2024-03-06T02:34:28;19.00;;;11.13;;
83018;SDS011;72834;40.104;18.336;2024-03-06T02:36:57;18.08;;;9.82;;
83018;SDS011;72834;40.104;18.336;2024-03-06T02:39:23;21.02;;;9.82;;
83018;SDS011;72834;40.104;18.336;2024-03-06T02:41:49;18.42;;;9.13;;
83018;SDS011;72834;40.104;18.336;2024-03-06T02:44:16;19.15;;;10.05;;
83018;SDS011;72834;40.104;18.336;2024-03-06T02:46:49;20.20;;;9.93;;
83018;SDS011;72834;40.104;18.336;2024-03-06T02:49:16;22.27;;;9.52;;
83018;SDS011;72834;40.104;18.336;2024-03-06T02:51:43;17.65;;;9.55;;
83018;SDS011;72834;40.104;18.336;2024-03-06T02:54:09;17.00;;;9.80;;
83018;SDS011;72834;40.104;18.336;2024-03-06T02:56:35;16.10;;;8.57;;
83018;SDS011;72834;40.104;18.336;2024-03-06T02:59:02;16.58;;;8.65;;
83018;SDS011;72834;40.104;18.336;2024-03-06T03:01:29;18.02;;;9.93;;
83018;SDS011;72834;40.104;18.336;2024-03-06T03:03:55;15.80;;;8.57;;
83018;SDS011;72834;40.104;18.336;2024-03-06T03:06:22;15.48;;;8.80;;
83018;SDS011;72834;40.104;18.336;2024-03-06T03:08:51;23.67;;;10.10;;
83018;SDS011;72834;40.104;18.336;2024-03-06T03:11:17;16.42;;;8.55;;
83018;SDS011;72834;40.104;18.336;2024-03-06T03:13:44;16.25;;;9.50;;
83018;SDS011;72834;40.104;18.336;2024-03-06T03:16:19;18.30;;;10.98;;
83018;SDS011;72834;40.104;18.336;2024-03-06T03:18:46;16.67;;;9.88;;
83018;SDS011;72834;40.104;18.336;2024-03-06T03:21:13;19.70;;;9.85;;
83018;SDS011;72834;40.104;18.336;2024-03-06T03:23:40;19.73;;;10.43;;
83018;SDS011;72834;40.104;18.336;2024-03-06T03:26:07;19.33;;;9.10;;
83018;SDS011;72834;40.104;18.336;2024-03-06T03:28:38;15.88;;;8.48;;
83018;SDS011;72834;40.104;18.336;2024-03-06T03:31:08;17.95;;;9.75;;
83018;SDS011;72834;40.104;18.336;2024-03-06T03:33:35;16.00;;;8.75;;
83018;SDS011;72834;40.104;18.336;2024-03-06T03:36:05;17.80;;;9.43;;
83018;SDS011;72834;40.104;18.336;2024-03-06T03:38:33;17.90;;;8.57;;
83018;SDS011;72834;40.104;18.336;2024-03-06T03:41:10;17.20;;;9.23;;
83018;SDS011;72834;40.104;18.336;2024-03-06T03:43:42;15.45;;;9.05;;
83018;SDS011;72834;40.104;18.336;2024-03-06T03:46:08;17.00;;;8.73;;
83018;SDS011;72834;40.104;18.336;2024-03-06T03:48:36;14.43;;;8.30;;
83018;SDS011;72834;40.104;18.336;2024-03-06T03:51:05;17.58;;;9.43;;
83018;SDS011;72834;40.104;18.336;2024-03-06T03:53:35;15.88;;;9.27;;
83018;SDS011;72834;40.104;18.336;2024-03-06T03:56:01;15.98;;;8.63;;
83018;SDS011;72834;40.104;18.336;2024-03-06T03:58:28;18.23;;;8.77;;
83018;SDS011;72834;40.104;18.336;2024-03-06T04:00:55;13.55;;;8.57;;
83018;SDS011;72834;40.104;18.336;2024-03-06T04:03:21;15.15;;;8.18;;
83018;SDS011;72834;40.104;18.336;2024-03-06T04:05:48;15.60;;;8.93;;
83018;SDS011;72834;40.104;18.336;2024-03-06T04:08:14;13.70;;;9.20;;
83018;SDS011;72834;40.104;18.336;2024-03-06T04:10:44;12.05;;;7.38;;
83018;SDS011;72834;40.104;18.336;2024-03-06T04:13:11;15.30;;;8.38;;
83018;SDS011;72834;40.104;18.336;2024-03-06T04:15:38;14.57;;;8.52;;
83018;SDS011;72834;40.104;18.336;2024-03-06T04:18:04;15.27;;;9.00;;
83018;SDS011;72834;40.104;18.336;2024-03-06T04:20:30;17.10;;;8.48;;
83018;SDS011;72834;40.104;18.336;2024-03-06T04:22:57;13.35;;;8.40;;
83018;SDS011;72834;40.104;18.336;2024-03-06T04:25:23;18.02;;;9.27;;
83018;SDS011;72834;40.104;18.336;2024-03-06T04:27:49;13.55;;;8.27;;
83018;SDS011;72834;40.104;18.336;2024-03-06T04:30:16;14.98;;;7.70;;
83018;SDS011;72834;40.104;18.336;2024-03-06T04:32:42;14.88;;;7.57;;
83018;SDS011;72834;40.104;18.336;2024-03-06T04:35:09;14.57;;;7.93;;
83018;SDS011;72834;40.104;18.336;2024-03-06T04:37:35;15.38;;;8.48;;
83018;SDS011;72834;40.104;18.336;2024-03-06T04:40:02;13.85;;;7.95;;
83018;SDS011;72834;40.104;18.336;2024-03-06T04:42:34;14.90;;;8.47;;
83018;SDS011;72834;40.104;18.336;2024-03-06T04:45:03;15.23;;;8.13;;
83018;SDS011;72834;40.104;18.336;2024-03-06T04:47:36;15.52;;;7.68;;
83018;SDS011;72834;40.104;18.336;2024-03-06T04:50:02;15.23;;;7.80;;
83018;SDS011;72834;40.104;18.336;2024-03-06T04:52:29;13.80;;;7.32;;
83018;SDS011;72834;40.104;18.336;2024-03-06T04:54:55;13.00;;;7.97;;
83018;SDS011;72834;40.104;18.336;2024-03-06T04:57:22;13.95;;;7.35;;
83018;SDS011;72834;40.104;18.336;2024-03-06T04:59:48;15.82;;;8.48;;
83018;SDS011;72834;40.104;18.336;2024-03-06T05:02:15;16.17;;;8.43;;
83018;SDS011;72834;40.104;18.336;2024-03-06T05:04:41;15.00;;;7.70;;
83018;SDS011;72834;40.104;18.336;2024-03-06T05:07:08;17.92;;;8.35;;
83018;SDS011;72834;40.104;18.336;2024-03-06T05:09:34;19.83;;;9.77;;
83018;SDS011;72834;40.104;18.336;2024-03-06T05:12:01;16.20;;;8.90;;
83018;SDS011;72834;40.104;18.336;2024-03-06T05:14:27;15.88;;;8.90;;
83018;SDS011;72834;40.104;18.336;2024-03-06T05:16:54;14.13;;;7.50;;
83018;SDS011;72834;40.104;18.336;2024-03-06T05:19:20;10.73;;;6.07;;
83018;SDS011;72834;40.104;18.336;2024-03-06T05:21:46;13.95;;;6.25;;
83018;SDS011;72834;40.104;18.336;2024-03-06T05:24:12;14.52;;;7.05;;
83018;SDS011;72834;40.104;18.336;2024-03-06T05:26:39;11.93;;;6.65;;
83018;SDS011;72834;40.104;18.336;2024-03-06T05:29:05;13.95;;;8.00;;
83018;SDS011;72834;40.104;18.336;2024-03-06T05:31:31;19.00;;;9.65;;
83018;SDS011;72834;40.104;18.336;2024-03-06T05:33:57;16.60;;;9.15;;
83018;SDS011;72834;40.104;18.336;2024-03-06T05:36:24;27.30;;;10.30;;
83018;SDS011;72834;40.104;18.336;2024-03-06T05:38:50;22.98;;;9.77;;
83018;SDS011;72834;40.104;18.336;2024-03-06T05:41:17;25.88;;;10.70;;
83018;SDS011;72834;40.104;18.336;2024-03-06T05:43:44;22.08;;;8.95;;
83018;SDS011;72834;40.104;18.336;2024-03-06T05:46:10;19.83;;;9.55;;
83018;SDS011;72834;40.104;18.336;2024-03-06T05:48:37;19.98;;;9.35;;
83018;SDS011;72834;40.104;18.336;2024-03-06T05:51:03;29.85;;;9.50;;
83018;SDS011;72834;40.104;18.336;2024-03-06T05:53:35;17.27;;;8.48;;
83018;SDS011;72834;40.104;18.336;2024-03-06T05:56:06;13.65;;;8.20;;
83018;SDS011;72834;40.104;18.336;2024-03-06T05:58:32;17.80;;;8.77;;
83018;SDS011;72834;40.104;18.336;2024-03-06T06:01:00;17.48;;;8.10;;
83018;SDS011;72834;40.104;18.336;2024-03-06T06:03:27;15.18;;;8.30;;
83018;SDS011;72834;40.104;18.336;2024-03-06T06:05:56;20.88;;;9.65;;
83018;SDS011;72834;40.104;18.336;2024-03-06T06:08:24;17.05;;;9.27;;
83018;SDS011;72834;40.104;18.336;2024-03-06T06:10:50;18.67;;;10.15;;
83018;SDS011;72834;40.104;18.336;2024-03-06T06:13:18;19.35;;;8.93;;
83018;SDS011;72834;40.104;18.336;2024-03-06T06:15:44;20.95;;;10.60;;
83018;SDS011;72834;40.104;18.336;2024-03-06T06:18:10;22.00;;;11.18;;
83018;SDS011;72834;40.104;18.336;2024-03-06T06:20:37;21.05;;;13.23;;
83018;SDS011;72834;40.104;18.336;2024-03-06T06:23:04;19.67;;;12.73;;
83018;SDS011;72834;40.104;18.336;2024-03-06T06:25:30;20.35;;;10.80;;
83018;SDS011;72834;40.104;18.336;2024-03-06T06:27:57;23.73;;;12.95;;
83018;SDS011;72834;40.104;18.336;2024-03-06T06:30:23;35.38;;;12.75;;
83018;SDS011;72834;40.104;18.336;2024-03-06T06:32:50;20.90;;;12.35;;
83018;SDS011;72834;40.104;18.336;2024-03-06T06:35:16;17.42;;;10.60;;
83018;SDS011;72834;40.104;18.336;2024-03-06T06:37:42;17.13;;;9.68;;
83018;SDS011;72834;40.104;18.336;2024-03-06T06:40:09;26.38;;;9.90;;
83018;SDS011;72834;40.104;18.336;2024-03-06T06:42:37;22.27;;;9.77;;
83018;SDS011;72834;40.104;18.336;2024-03-06T06:45:04;23.77;;;11.30;;
83018;SDS011;72834;40.104;18.336;2024-03-06T06:47:35;21.85;;;11.18;;
83018;SDS011;72834;40.104;18.336;2024-03-06T06:50:01;24.08;;;11.05;;
83018;SDS011;72834;40.104;18.336;2024-03-06T06:52:30;32.20;;;16.00;;
83018;SDS011;72834;40.104;18.336;2024-03-06T06:54:59;82.28;;;33.95;;
83018;SDS011;72834;40.104;18.336;2024-03-06T06:57:25;26.45;;;14.68;;
83018;SDS011;72834;40.104;18.336;2024-03-06T06:59:51;72.35;;;39.08;;
83018;SDS011;72834;40.104;18.336;2024-03-06T07:02:18;73.85;;;39.80;;
83018;SDS011;72834;40.104;18.336;2024-03-06T07:04:44;25.42;;;16.15;;
83018;SDS011;72834;40.104;18.336;2024-03-06T07:07:10;20.55;;;11.75;;
83018;SDS011;72834;40.104;18.336;2024-03-06T07:09:37;13.05;;;8.18;;
83018;SDS011;72834;40.104;18.336;2024-03-06T07:12:03;36.58;;;21.10;;
83018;SDS011;72834;40.104;18.336;2024-03-06T07:14:30;29.17;;;16.75;;
83018;SDS011;72834;40.104;18.336;2024-03-06T07:16:56;20.13;;;11.23;;
83018;SDS011;72834;40.104;18.336;2024-03-06T07:19:23;96.57;;;44.90;;
83018;SDS011;72834;40.104;18.336;2024-03-06T07:21:49;94.00;;;47.72;;
83018;SDS011;72834;40.104;18.336;2024-03-06T07:24:15;43.42;;;26.00;;
83018;SDS011;72834;40.104;18.336;2024-03-06T07:26:42;18.15;;;10.57;;
83018;SDS011;72834;40.104;18.336;2024-03-06T07:29:09;16.02;;;9.18;;
83018;SDS011;72834;40.104;18.336;2024-03-06T07:31:40;25.40;;;14.55;;
83018;SDS011;72834;40.104;18.336;2024-03-06T07:34:07;24.75;;;13.27;;
83018;SDS011;72834;40.104;18.336;2024-03-06T07:36:34;25.85;;;14.80;;
83018;SDS011;72834;40.104;18.336;2024-03-06T07:39:01;27.98;;;12.80;;
83018;SDS011;72834;40.104;18.336;2024-03-06T07:41:28;21.98;;;12.48;;
83018;SDS011;72834;40.104;18.336;2024-03-06T07:43:54;18.98;;;11.60;;
83018;SDS011;72834;40.104;18.336;2024-03-06T07:46:20;25.70;;;12.00;;
83018;SDS011;72834;40.104;18.336;2024-03-06T07:48:47;17.98;;;10.77;;
83018;SDS011;72834;40.104;18.336;2024-03-06T07:51:14;20.73;;;13.27;;
83018;SDS011;72834;40.104;18.336;2024-03-06T07:53:40;20.23;;;11.68;;
83018;SDS011;72834;40.104;18.336;2024-03-06T07:56:09;18.65;;;10.60;;
83018;SDS011;72834;40.104;18.336;2024-03-06T07:58:37;14.70;;;9.30;;
83018;SDS011;72834;40.104;18.336;2024-03-06T08:01:03;17.20;;;9.75;;
83018;SDS011;72834;40.104;18.336;2024-03-06T08:03:30;22.08;;;11.48;;
83018;SDS011;72834;40.104;18.336;2024-03-06T08:05:56;29.45;;;21.45;;
83018;SDS011;72834;40.104;18.336;2024-03-06T08:08:22;19.52;;;14.30;;
83018;SDS011;72834;40.104;18.336;2024-03-06T08:10:49;20.80;;;12.32;;
83018;SDS011;72834;40.104;18.336;2024-03-06T08:13:15;19.27;;;11.52;;
83018;SDS011;72834;40.104;18.336;2024-03-06T08:15:44;20.00;;;10.70;;
83018;SDS011;72834;40.104;18.336;2024-03-06T08:18:11;14.75;;;8.75;;
83018;SDS011;72834;40.104;18.336;2024-03-06T08:20:41;12.15;;;6.13;;
83018;SDS011;72834;40.104;18.336;2024-03-06T08:23:07;9.95;;;5.32;;
83018;SDS011;72834;40.104;18.336;2024-03-06T08:25:35;10.23;;;4.90;;
83018;SDS011;72834;40.104;18.336;2024-03-06T08:28:01;10.48;;;5.45;;
83018;SDS011;72834;40.104;18.336;2024-03-06T08:30:31;14.50;;;5.90;;
83018;SDS011;72834;40.104;18.336;2024-03-06T08:32:58;15.63;;;6.15;;
83018;SDS011;72834;40.104;18.336;2024-03-06T08:35:24;9.27;;;5.13;;
83018;SDS011;72834;40.104;18.336;2024-03-06T08:37:50;9.80;;;4.82;;
83018;SDS011;72834;40.104;18.336;2024-03-06T08:40:17;11.00;;;4.78;;
83018;SDS011;72834;40.104;18.336;2024-03-06T08:42:44;13.57;;;4.85;;
83018;SDS011;72834;40.104;18.336;2024-03-06T08:45:12;15.38;;;7.43;;
83018;SDS011;72834;40.104;18.336;2024-03-06T08:47:40;11.05;;;4.93;;
83018;SDS011;72834;40.104;18.336;2024-03-06T08:50:07;12.38;;;5.03;;
83018;SDS011;72834;40.104;18.336;2024-03-06T08:52:35;13.25;;;5.60;;
83018;SDS011;72834;40.104;18.336;2024-03-06T08:55:02;16.33;;;7.25;;
83018;SDS011;72834;40.104;18.336;2024-03-06T08:57:32;15.35;;;6.85;;
83018;SDS011;72834;40.104;18.336;2024-03-06T08:59:59;16.08;;;6.80;;
83018;SDS011;72834;40.104;18.336;2024-03-06T09:02:26;13.57;;;5.03;;
83018;SDS011;72834;40.104;18.336;2024-03-06T09:04:52;12.93;;;4.97;;
83018;SDS011;72834;40.104;18.336;2024-03-06T09:07:19;10.05;;;4.60;;
83018;SDS011;72834;40.104;18.336;2024-03-06T09:09:49;9.40;;;4.80;;
83018;SDS011;72834;40.104;18.336;2024-03-06T09:12:19;12.88;;;5.22;;
83018;SDS011;72834;40.104;18.336;2024-03-06T09:14:45;14.13;;;6.22;;
83018;SDS011;72834;40.104;18.336;2024-03-06T09:17:12;10.00;;;4.43;;
83018;SDS011;72834;40.104;18.336;2024-03-06T09:19:41;10.13;;;4.40;;
83018;SDS011;72834;40.104;18.336;2024-03-06T09:22:07;8.02;;;3.92;;
83018;SDS011;72834;40.104;18.336;2024-03-06T09:24:34;7.45;;;3.72;;
83018;SDS011;72834;40.104;18.336;2024-03-06T09:27:06;10.35;;;4.05;;
83018;SDS011;72834;40.104;18.336;2024-03-06T09:29:32;10.63;;;4.30;;
83018;SDS011;72834;40.104;18.336;2024-03-06T09:31:59;16.05;;;8.40;;
83018;SDS011;72834;40.104;18.336;2024-03-06T09:34:25;10.48;;;5.63;;
83018;SDS011;72834;40.104;18.336;2024-03-06T09:36:51;11.15;;;4.93;;
83018;SDS011;72834;40.104;18.336;2024-03-06T09:39:18;11.90;;;5.03;;
83018;SDS011;72834;40.104;18.336;2024-03-06T09:41:51;8.57;;;3.40;;
83018;SDS011;72834;40.104;18.336;2024-03-06T09:44:18;14.80;;;4.25;;
83018;SDS011;72834;40.104;18.336;2024-03-06T09:46:46;10.52;;;5.30;;
83018;SDS011;72834;40.104;18.336;2024-03-06T09:49:14;9.20;;;4.38;;
83018;SDS011;72834;40.104;18.336;2024-03-06T09:51:48;10.77;;;5.93;;
83018;SDS011;72834;40.104;18.336;2024-03-06T09:54:19;14.52;;;6.53;;
83018;SDS011;72834;40.104;18.336;2024-03-06T09:56:46;7.22;;;2.88;;
83018;SDS011;72834;40.104;18.336;2024-03-06T09:59:13;8.77;;;3.13;;
83018;SDS011;72834;40.104;18.336;2024-03-06T10:01:47;7.00;;;3.00;;
83018;SDS011;72834;40.104;18.336;2024-03-06T10:04:27;17.05;;;8.85;;
83018;SDS011;72834;40.104;18.336;2024-03-06T10:06:55;69.13;;;35.45;;
83018;SDS011;72834;40.104;18.336;2024-03-06T10:09:23;27.13;;;19.48;;
83018;SDS011;72834;40.104;18.336;2024-03-06T10:11:50;16.73;;;11.35;;
83018;SDS011;72834;40.104;18.336;2024-03-06T10:14:19;11.02;;;5.20;;
83018;SDS011;72834;40.104;18.336;2024-03-06T10:16:52;23.48;;;9.77;;
83018;SDS011;72834;40.104;18.336;2024-03-06T10:19:19;17.40;;;6.95;;
83018;SDS011;72834;40.104;18.336;2024-03-06T10:21:49;7.55;;;3.58;;
83018;SDS011;72834;40.104;18.336;2024-03-06T10:26:48;7.32;;;3.35;;
83018;SDS011;72834;40.104;18.336;2024-03-06T10:29:20;6.68;;;2.70;;
83018;SDS011;72834;40.104;18.336;2024-03-06T10:31:51;5.60;;;2.67;;
83018;SDS011;72834;40.104;18.336;2024-03-06T10:34:23;8.55;;;3.25;;
83018;SDS011;72834;40.104;18.336;2024-03-06T10:36:58;8.35;;;3.13;;
83018;SDS011;72834;40.104;18.336;2024-03-06T10:39:27;8.50;;;4.35;;
83018;SDS011;72834;40.104;18.336;2024-03-06T10:41:56;8.27;;;2.85;;
83018;SDS011;72834;40.104;18.336;2024-03-06T10:44:23;8.45;;;3.08;;
83018;SDS011;72834;40.104;18.336;2024-03-06T10:46:55;16.40;;;6.80;;
83018;SDS011;72834;40.104;18.336;2024-03-06T10:49:26;10.68;;;3.35;;
83018;SDS011;72834;40.104;18.336;2024-03-06T10:54:26;6.72;;;3.15;;
83018;SDS011;72834;40.104;18.336;2024-03-06T10:56:55;6.63;;;2.97;;
83018;SDS011;72834;40.104;18.336;2024-03-06T10:59:23;7.18;;;2.65;;
83018;SDS011;72834;40.104;18.336;2024-03-06T11:01:55;10.35;;;3.35;;
83018;SDS011;72834;40.104;18.336;2024-03-06T11:04:23;7.47;;;2.13;;
83018;SDS011;72834;40.104;18.336;2024-03-06T11:06:57;5.90;;;2.92;;
83018;SDS011;72834;40.104;18.336;2024-03-06T11:09:43;6.95;;;2.72;;
83018;SDS011;72834;40.104;18.336;2024-03-06T11:12:09;4.70;;;2.13;;
83018;SDS011;72834;40.104;18.336;2024-03-06T11:14:36;6.72;;;2.15;;
83018;SDS011;72834;40.104;18.336;2024-03-06T11:17:05;7.35;;;2.53;;
83018;SDS011;72834;40.104;18.336;2024-03-06T11:28:34;9.98;;;4.53;;
83018;SDS011;72834;40.104;18.336;2024-03-06T11:31:02;18.40;;;11.20;;
83018;SDS011;72834;40.104;18.336;2024-03-06T11:33:36;5.70;;;2.42;;
83018;SDS011;72834;40.104;18.336;2024-03-06T11:36:15;7.45;;;3.70;;
83018;SDS011;72834;40.104;18.336;2024-03-06T11:38:59;9.02;;;4.72;;
83018;SDS011;72834;40.104;18.336;2024-03-06T11:44:20;6.85;;;2.40;;
83018;SDS011;72834;40.104;18.336;2024-03-06T11:46:58;12.57;;;7.97;;
83018;SDS011;72834;40.104;18.336;2024-03-06T11:49:29;12.40;;;6.93;;
83018;SDS011;72834;40.104;18.336;2024-03-06T11:52:03;7.82;;;4.40;;
83018;SDS011;72834;40.104;18.336;2024-03-06T11:56:58;9.65;;;4.22;;
83018;SDS011;72834;40.104;18.336;2024-03-06T11:59:26;38.00;;;23.17;;
83018;SDS011;72834;40.104;18.336;2024-03-06T12:02:01;39.53;;;23.70;;
83018;SDS011;72834;40.104;18.336;2024-03-06T12:04:30;141.48;;;68.20;;
83018;SDS011;72834;40.104;18.336;2024-03-06T12:06:59;49.53;;;28.83;;
83018;SDS011;72834;40.104;18.336;2024-03-06T12:09:32;82.60;;;37.38;;
83018;SDS011;72834;40.104;18.336;2024-03-06T12:11:59;10.38;;;5.00;;
83018;SDS011;72834;40.104;18.336;2024-03-06T12:14:25;9.52;;;3.45;;
83018;SDS011;72834;40.104;18.336;2024-03-06T12:16:55;12.35;;;5.75;;
83018;SDS011;72834;40.104;18.336;2024-03-06T12:19:22;6.95;;;3.05;;
83018;SDS011;72834;40.104;18.336;2024-03-06T12:21:48;5.75;;;2.30;;
83018;SDS011;72834;40.104;18.336;2024-03-06T12:24:15;5.70;;;2.22;;
83018;SDS011;72834;40.104;18.336;2024-03-06T12:26:46;11.57;;;5.47;;
83018;SDS011;72834;40.104;18.336;2024-03-06T12:29:18;10.02;;;3.50;;
83018;SDS011;72834;40.104;18.336;2024-03-06T12:31:47;22.17;;;7.60;;
83018;SDS011;72834;40.104;18.336;2024-03-06T12:34:13;7.75;;;3.30;;
83018;SDS011;72834;40.104;18.336;2024-03-06T12:36:43;5.75;;;2.70;;
83018;SDS011;72834;40.104;18.336;2024-03-06T12:39:14;7.03;;;3.15;;
83018;SDS011;72834;40.104;18.336;2024-03-06T12:41:47;47.13;;;24.75;;
83018;SDS011;72834;40.104;18.336;2024-03-06T12:44:13;46.80;;;21.42;;
83018;SDS011;72834;40.104;18.336;2024-03-06T12:46:41;11.30;;;5.88;;
83018;SDS011;72834;40.104;18.336;2024-03-06T12:49:07;10.10;;;4.45;;
83018;SDS011;72834;40.104;18.336;2024-03-06T12:51:33;173.00;;;84.30;;
83018;SDS011;72834;40.104;18.336;2024-03-06T12:53:59;196.05;;;93.55;;
83018;SDS011;72834;40.104;18.336;2024-03-06T12:56:27;85.32;;;46.33;;
83018;SDS011;72834;40.104;18.336;2024-03-06T12:58:53;46.78;;;26.20;;
83018;SDS011;72834;40.104;18.336;2024-03-06T13:01:19;38.78;;;24.00;;
83018;SDS011;72834;40.104;18.336;2024-03-06T13:03:45;21.63;;;12.35;;
83018;SDS011;72834;40.104;18.336;2024-03-06T13:06:12;9.32;;;4.85;;
83018;SDS011;72834;40.104;18.336;2024-03-06T13:08:39;7.35;;;3.63;;
83018;SDS011;72834;40.104;18.336;2024-03-06T13:11:05;8.50;;;3.58;;
83018;SDS011;72834;40.104;18.336;2024-03-06T13:13:31;10.20;;;6.10;;
83018;SDS011;72834;40.104;18.336;2024-03-06T13:16:00;10.32;;;6.15;;
83018;SDS011;72834;40.104;18.336;2024-03-06T13:18:26;8.18;;;3.40;;
83018;SDS011;72834;40.104;18.336;2024-03-06T13:20:52;23.50;;;14.73;;
83018;SDS011;72834;40.104;18.336;2024-03-06T13:23:19;48.22;;;30.30;;
83018;SDS011;72834;40.104;18.336;2024-03-06T13:25:45;29.50;;;20.50;;
83018;SDS011;72834;40.104;18.336;2024-03-06T13:28:12;14.73;;;9.60;;
83018;SDS011;72834;40.104;18.336;2024-03-06T13:30:38;10.52;;;4.75;;
83018;SDS011;72834;40.104;18.336;2024-03-06T13:33:05;15.18;;;8.43;;
83018;SDS011;72834;40.104;18.336;2024-03-06T13:35:32;7.80;;;3.78;;
83018;SDS011;72834;40.104;18.336;2024-03-06T13:37:59;24.42;;;14.93;;
83018;SDS011;72834;40.104;18.336;2024-03-06T13:40:25;13.98;;;7.40;;
83018;SDS011;72834;40.104;18.336;2024-03-06T13:42:52;21.70;;;12.85;;
83018;SDS011;72834;40.104;18.336;2024-03-06T13:45:19;13.20;;;6.00;;
83018;SDS011;72834;40.104;18.336;2024-03-06T13:47:45;28.95;;;12.90;;
83018;SDS011;72834;40.104;18.336;2024-03-06T13:50:12;29.65;;;14.00;;
83018;SDS011;72834;40.104;18.336;2024-03-06T13:52:40;35.38;;;13.95;;
83018;SDS011;72834;40.104;18.336;2024-03-06T13:55:07;20.40;;;9.45;;
83018;SDS011;72834;40.104;18.336;2024-03-06T13:57:34;33.83;;;13.70;;
83018;SDS011;72834;40.104;18.336;2024-03-06T14:00:03;21.73;;;8.30;;
83018;SDS011;72834;40.104;18.336;2024-03-06T14:02:37;12.93;;;4.63;;
83018;SDS011;72834;40.104;18.336;2024-03-06T14:05:05;20.02;;;7.68;;
83018;SDS011;72834;40.104;18.336;2024-03-06T14:07:33;22.42;;;7.13;;
83018;SDS011;72834;40.104;18.336;2024-03-06T14:10:00;19.05;;;7.72;;
83018;SDS011;72834;40.104;18.336;2024-03-06T14:12:28;29.42;;;13.10;;
83018;SDS011;72834;40.104;18.336;2024-03-06T14:14:55;19.63;;;7.45;;
83018;SDS011;72834;40.104;18.336;2024-03-06T14:17:21;16.88;;;5.97;;
83018;SDS011;72834;40.104;18.336;2024-03-06T14:19:47;12.10;;;4.50;;
83018;SDS011;72834;40.104;18.336;2024-03-06T14:22:13;14.60;;;4.72;;
83018;SDS011;72834;40.104;18.336;2024-03-06T14:24:42;12.15;;;6.95;;
83018;SDS011;72834;40.104;18.336;2024-03-06T14:27:08;13.48;;;5.43;;
83018;SDS011;72834;40.104;18.336;2024-03-06T14:29:35;10.15;;;4.05;;
83018;SDS011;72834;40.104;18.336;2024-03-06T14:32:01;9.75;;;3.53;;
83018;SDS011;72834;40.104;18.336;2024-03-06T14:34:28;8.70;;;2.53;;
83018;SDS011;72834;40.104;18.336;2024-03-06T14:36:54;6.70;;;2.40;;
83018;SDS011;72834;40.104;18.336;2024-03-06T14:39:21;10.63;;;3.38;;
83018;SDS011;72834;40.104;18.336;2024-03-06T14:41:51;6.35;;;2.67;;